createdAt,value
2022-09-05T16:01:59.627Z,27.25
2022-09-05T16:05:11.797Z,28.20
2022-09-05T16:10:26.878Z,31.20
2022-09-05T16:10:35.026Z,29.20
2022-09-05T16:10:48.418Z,28.40
2022-09-05T16:13:36.702Z,27.40
2022-09-05T16:20:15.015Z,22.80
2022-09-05T16:23:16.852Z,24.80
2022-09-05T16:23:20.017Z,23.00
2022-09-05T16:23:24.110Z,39.80
2022-09-05T16:23:39.499Z,37.40
2022-09-05T16:25:16.399Z,34.00
2022-09-05T16:26:49.886Z,37.20
2022-09-05T16:28:24.530Z,30.40
2022-09-05T16:29:56.252Z,31.00
2022-09-05T16:31:41.585Z,26.20
2022-09-05T16:33:29.954Z,32.20
2022-09-05T16:35:04.954Z,26.40
2022-09-05T16:37:08.637Z,28.40
2022-09-05T16:39:09.786Z,29.40
2022-09-05T16:40:42.762Z,31.40
2022-09-05T16:42:46.455Z,26.20
2022-09-05T16:44:29.791Z,28.80
2022-09-05T16:46:35.775Z,29.40
2022-09-05T16:48:41.075Z,27.40
2022-09-05T16:50:50.158Z,29.60
2022-09-05T16:52:22.942Z,28.20
2022-09-05T16:54:22.304Z,29.00
2022-09-05T16:55:56.208Z,30.80
2022-09-05T16:57:35.702Z,47.20
2022-09-05T16:59:13.447Z,33.20
2022-09-05T17:00:57.419Z,30.60
2022-09-05T17:02:36.917Z,30.60
2022-09-05T17:04:16.113Z,43.75
2022-09-05T17:05:48.312Z,35.80
2022-09-05T17:07:30.837Z,34.00
2022-09-05T17:09:12.929Z,33.40
2022-09-05T17:10:58.163Z,28.60
2022-09-05T17:12:37.535Z,31.80
2022-09-05T17:14:15.413Z,28.80
2022-09-05T17:15:51.595Z,31.00
2022-09-05T17:18:18.673Z,26.00
2022-09-05T17:19:26.764Z,28.20
2022-09-05T17:21:10.143Z,30.40
2022-09-05T17:28:43.092Z,41.00
2022-09-05T17:29:23.976Z,32.00
2022-09-05T17:29:26.137Z,45.75
2022-09-05T17:29:31.266Z,31.60
2022-09-05T17:32:52.593Z,28.60
2022-09-05T17:34:33.744Z,30.00
2022-09-05T17:36:18.653Z,25.60
2022-09-05T17:38:12.454Z,100.00
2022-09-05T17:40:02.422Z,106.50
2022-09-05T17:41:43.374Z,107.00
2022-09-05T17:43:33.168Z,102.00
2022-09-05T17:45:26.799Z,104.50
2022-09-05T17:47:25.893Z,91.50
2022-09-05T17:49:19.311Z,94.00
2022-09-05T17:50:54.088Z,88.75
2022-09-05T17:52:26.090Z,85.60
2022-09-05T17:54:02.915Z,84.50
2022-09-05T17:55:37.783Z,72.20
2022-09-05T17:57:27.520Z,80.20
2022-09-05T17:59:12.899Z,80.00
2022-09-05T18:00:45.668Z,79.80
2022-09-05T18:02:17.726Z,64.50
2022-09-05T18:03:49.603Z,69.50
2022-09-05T18:05:57.844Z,69.50
2022-09-05T18:07:49.562Z,73.50
2022-09-05T18:09:40.001Z,74.25
2022-09-05T18:13:32.368Z,70.50
2022-09-05T18:15:25.472Z,67.50
2022-09-05T18:17:36.998Z,63.25
2022-09-05T18:19:28.101Z,64.75
2022-09-05T18:21:21.287Z,68.25
2022-09-05T18:25:27.751Z,61.75
2022-09-05T18:29:57.878Z,58.75
2022-09-05T18:31:40.868Z,59.50
2022-09-05T18:33:55.655Z,59.00
2022-09-05T18:35:26.669Z,58.00
2022-09-05T18:37:36.254Z,54.25
2022-09-05T18:39:26.216Z,56.75
2022-09-05T18:40:58.012Z,55.25
2022-09-05T18:42:34.787Z,55.00
2022-09-05T18:44:13.979Z,54.25
2022-09-05T18:45:54.277Z,53.75
2022-09-05T18:47:51.260Z,57.25
2022-09-05T18:50:21.656Z,55.50
2022-09-05T18:51:31.812Z,51.25
2022-09-05T18:53:09.960Z,51.75
2022-09-05T18:54:51.863Z,51.25
2022-09-05T18:57:12.035Z,47.50
2022-09-05T18:59:10.111Z,46.25
2022-09-05T19:00:44.778Z,47.67
2022-09-05T19:02:41.083Z,48.00
2022-09-05T19:04:39.237Z,47.50
2022-09-05T19:06:36.144Z,43.75
2022-09-05T19:08:12.509Z,57.50
2022-09-05T19:10:34.773Z,86.50
2022-09-05T19:12:32.915Z,78.40
2022-09-05T19:14:38.811Z,79.60
2022-09-05T19:16:44.037Z,76.60
2022-09-05T19:18:26.921Z,71.60
2022-09-05T19:20:30.704Z,75.00
2022-09-05T19:23:08.476Z,69.25
2022-09-05T19:23:57.720Z,74.00
2022-09-05T19:25:35.099Z,68.00
2022-09-05T19:28:29.226Z,62.00
2022-09-05T19:36:47.126Z,65.00
2022-09-05T19:36:57.589Z,65.50
2022-09-05T19:37:02.958Z,55.00
2022-09-05T19:37:10.159Z,56.25
2022-09-05T19:37:26.230Z,55.25
2022-09-05T19:40:07.764Z,57.00
2022-09-05T19:47:00.531Z,59.00
2022-09-05T19:47:27.299Z,53.00
2022-09-05T19:47:40.611Z,49.50
2022-09-05T19:47:48.497Z,55.75
2022-09-05T19:48:28.227Z,53.00
2022-09-05T19:50:06.306Z,55.50
2022-09-05T19:51:38.918Z,47.00
2022-09-05T19:53:13.309Z,52.50
2022-09-05T19:54:45.191Z,44.50
2022-09-05T19:56:17.075Z,45.50
2022-09-05T19:57:56.937Z,43.00
2022-09-05T19:59:44.538Z,49.00
2022-09-05T20:01:18.674Z,51.00
2022-09-05T20:02:55.189Z,43.00
2022-09-05T20:04:30.511Z,42.00
2022-09-05T20:06:02.258Z,35.40
2022-09-05T20:07:36.031Z,41.20
2022-09-05T20:09:14.349Z,36.00
2022-09-05T20:10:46.824Z,52.50
2022-09-05T20:12:24.462Z,89.75
2022-09-05T20:14:16.727Z,94.25
2022-09-05T20:15:49.218Z,61.50
2022-09-05T20:17:26.194Z,69.75
2022-09-05T20:18:57.963Z,63.75
2022-09-05T20:20:30.794Z,59.75
2022-09-05T20:22:35.481Z,64.00
2022-09-05T20:24:00.035Z,63.25
2022-09-05T20:25:42.530Z,56.50
2022-09-05T20:27:16.781Z,59.50
2022-09-05T20:28:52.745Z,69.25
2022-09-05T20:30:30.354Z,82.75
2022-09-05T20:32:02.895Z,73.50
2022-09-05T20:33:48.615Z,76.75
2022-09-05T20:38:58.392Z,77.20
2022-09-05T20:43:11.391Z,84.00
2022-09-05T20:43:20.295Z,79.00
2022-09-05T20:43:22.127Z,71.25
2022-09-05T20:43:35.135Z,88.60
2022-09-05T20:45:09.223Z,72.60
2022-09-05T20:50:22.342Z,70.25
2022-09-05T20:54:08.141Z,72.50
2022-09-05T20:54:08.193Z,79.60
2022-09-05T20:54:18.417Z,73.20
2022-09-05T20:54:34.866Z,75.20
2022-09-05T20:56:10.994Z,72.50
2022-09-05T20:57:42.994Z,59.75
2022-09-05T20:59:35.230Z,74.00
2022-09-05T21:01:21.581Z,66.00
2022-09-05T21:02:58.694Z,58.25
2022-09-05T21:04:38.694Z,70.75
2022-09-05T21:06:20.321Z,64.25
2022-09-05T21:08:07.315Z,59.75
2022-09-05T21:09:57.245Z,66.50
2022-09-05T21:11:31.380Z,63.25
2022-09-05T21:13:03.150Z,58.00
2022-09-05T21:14:35.096Z,64.75
2022-09-05T21:16:24.739Z,61.75
2022-09-05T21:18:01.339Z,60.25
2022-09-05T21:19:34.596Z,60.00
2022-09-05T21:21:14.620Z,54.00
2022-09-05T21:22:58.686Z,50.50
2022-09-05T21:24:31.161Z,43.75
2022-09-05T21:26:04.983Z,44.75
2022-09-05T21:27:36.842Z,46.00
2022-09-05T21:29:27.270Z,35.00
2022-09-05T21:31:12.873Z,65.50
2022-09-05T21:32:48.119Z,120.25
2022-09-05T21:34:28.510Z,143.00
2022-09-05T21:36:01.459Z,106.00
2022-09-05T21:37:33.342Z,100.50
2022-09-05T21:39:05.167Z,98.00
2022-09-05T21:40:41.313Z,97.00
2022-09-05T21:44:29.483Z,85.25
2022-09-05T21:47:39.906Z,89.25
2022-09-05T21:47:42.154Z,95.00
2022-09-05T21:47:53.088Z,80.25
2022-09-05T21:49:26.058Z,87.50
2022-09-05T21:51:00.263Z,93.50
2022-09-05T21:52:32.752Z,80.60
2022-09-05T21:57:00.418Z,82.00
2022-09-05T21:59:25.011Z,92.75
2022-09-05T21:59:28.367Z,85.00
2022-09-05T21:59:57.684Z,87.50
2022-09-05T22:01:51.025Z,84.50
2022-09-05T22:03:24.560Z,89.00
2022-09-05T22:05:03.084Z,87.75
2022-09-05T22:06:35.508Z,81.25
2022-09-05T22:08:07.290Z,78.80
2022-09-05T22:09:39.026Z,85.25
2022-09-05T22:11:12.357Z,73.00
2022-09-05T22:12:44.094Z,76.00
2022-09-05T22:14:16.558Z,61.00
2022-09-05T22:15:48.659Z,80.00
2022-09-05T22:17:22.375Z,75.80
2022-09-05T22:18:56.124Z,66.50
2022-09-05T22:20:27.966Z,60.50
2022-09-05T22:22:02.693Z,229.33
2022-09-05T22:23:34.391Z,210.25
2022-09-05T22:25:21.910Z,169.00
2022-09-05T22:27:11.272Z,168.25
2022-09-05T22:28:51.084Z,137.67
2022-09-05T22:30:23.256Z,138.25
2022-09-05T22:31:54.973Z,114.00
2022-09-05T22:33:26.730Z,125.50
2022-09-05T22:34:58.479Z,109.50
